TRLO2: Red River Nr Terral, OK

Data processed at Wed Jun 17 2020 23:35


All information presented herein is the property of the government of the United States of America and may be revised or deleted at any time without prior notice.
Dissemination of this information without the expressed written consent of the Public Affairs Office, Tulsa District U.S. Army Corps of Engineers is strictly prohibited.
These data are gathered electronically and, as presented, have not undergone any form of quality control. These data are not guaranteed to be valid or correct.
Go to home page.
Go to station list.
Go to home page.

Upstream stations:

Downstream station:
Previous Day
Next Day
Current Day
    
SHEF ID:       TRLO2     Red Rv nr Terral, OK
STATION TYPE:  
Regulating: Stage =    22.00, Flow =    58985

               PRECIP     STAGE  RIV-FLOW   VOLTAGE  BAT-LOAD
                   in        ft       cfs      volt      volt
              Ccp-Rev   Ccp-Rev   Ccp-Rev   Ccp-Rev   Ccp-Rev
(US/Central)
06/17 00:00      ----      6.85       610     13.10     12.65
06/17 01:00      ----      6.81       590     13.10     12.65
06/17 02:00      ----      6.77       570     13.10     12.65
06/17 03:00      ----      6.79       580     13.00     12.65
06/17 04:00      ----      6.84       605     13.00     12.60
06/17 05:00      ----      6.80       585     13.00     12.60
06/17 06:00      ----      6.82       595     13.00     12.54
06/17 07:00      ----      6.83       600     13.00     12.54
06/17 08:00      ----      6.81       590     13.30     12.54
06/17 09:00      ----      6.85       610     13.50     12.83
06/17 10:00      ----      6.78       575     13.50     13.07
06/17 11:00      ----      6.80       585     13.50     13.07
06/17 12:00      ----      6.79       580     13.50     13.24
06/17 13:00      ----      6.75       560     13.50     13.18
06/17 14:00      ----      6.78       575     13.40     13.07
06/17 15:00      ----      6.80       585     13.40     13.07
06/17 16:00      ----      6.76       565     13.40     13.00
06/17 17:00      ----      6.72       545     13.40     12.95
06/17 18:00      ----      6.75       560     13.40     13.00
06/17 19:00      ----      6.75       560     13.40     13.12
06/17 20:00      ----      6.78       575     13.40     13.00
06/17 21:00      ----      6.82       595     13.20     12.95
06/17 22:00      ----      6.83       600     13.10     12.71
06/17 23:00      ----      ----      ----      ----      ----